createdAt,value
2022-10-19T00:00:47.808Z,9.60
2022-10-19T00:03:18.245Z,10.35
2022-10-19T00:05:47.416Z,9.50
2022-10-19T00:08:13.995Z,9.18
2022-10-19T00:10:41.345Z,9.15
2022-10-19T00:13:08.462Z,10.60
2022-10-19T00:15:39.421Z,7.43
2022-10-19T00:18:06.766Z,7.60
2022-10-19T00:20:34.165Z,9.50
2022-10-19T00:23:00.746Z,7.32
2022-10-19T00:25:27.427Z,9.75
2022-10-19T00:27:54.016Z,8.77
2022-10-19T00:30:20.839Z,8.25
2022-10-19T00:32:47.414Z,11.52
2022-10-19T00:35:14.011Z,10.20
2022-10-19T00:37:40.631Z,10.18
2022-10-19T00:40:08.041Z,8.48
2022-10-19T00:42:34.755Z,8.65
2022-10-19T00:45:06.573Z,6.75
2022-10-19T00:47:34.152Z,8.05
2022-10-19T00:50:01.139Z,8.10
2022-10-19T00:52:28.011Z,11.15
2022-10-19T00:54:56.996Z,11.68
2022-10-19T00:57:26.526Z,9.35
2022-10-19T00:59:53.187Z,8.75
2022-10-19T01:02:19.835Z,8.45
2022-10-19T01:04:51.861Z,9.75
2022-10-19T01:07:19.796Z,9.02
2022-10-19T01:09:46.734Z,8.15
2022-10-19T01:12:36.974Z,8.55
2022-10-19T01:15:33.710Z,9.35
2022-10-19T01:18:34.982Z,8.57
2022-10-19T01:21:26.162Z,7.57
2022-10-19T01:24:11.928Z,8.60
2022-10-19T01:26:56.467Z,9.23
2022-10-19T01:29:38.678Z,12.93
2022-10-19T01:32:24.152Z,8.15
2022-10-19T01:35:06.611Z,9.27
2022-10-19T01:37:44.082Z,8.25
2022-10-19T01:40:43.186Z,9.43
2022-10-19T01:43:19.063Z,10.80
2022-10-19T01:45:53.995Z,10.93
2022-10-19T01:48:29.274Z,10.68
2022-10-19T01:51:07.764Z,9.35
2022-10-19T01:53:41.710Z,10.75
2022-10-19T01:56:09.686Z,9.93
2022-10-19T01:58:39.608Z,9.50
2022-10-19T02:03:42.375Z,10.75
2022-10-19T02:06:11.590Z,8.35
2022-10-19T02:08:43.971Z,10.95
2022-10-19T02:11:10.829Z,10.50
2022-10-19T02:13:39.846Z,11.02
2022-10-19T02:16:10.982Z,10.75
2022-10-19T02:18:43.403Z,10.70
2022-10-19T02:21:10.706Z,12.07
2022-10-19T02:23:37.532Z,11.07
2022-10-19T02:26:04.792Z,11.88
2022-10-19T02:28:31.670Z,9.73
2022-10-19T02:30:59.184Z,13.07
2022-10-19T02:33:26.988Z,8.85
2022-10-19T02:35:53.633Z,9.23
2022-10-19T02:38:22.590Z,9.43
2022-10-19T02:41:02.283Z,9.65
2022-10-19T02:43:32.059Z,10.27
2022-10-19T02:46:08.719Z,11.18
2022-10-19T02:48:38.103Z,9.98
2022-10-19T02:51:04.746Z,9.35
2022-10-19T02:53:31.390Z,10.23
2022-10-19T02:55:58.079Z,9.82
2022-10-19T02:58:24.713Z,10.98
2022-10-19T03:00:51.358Z,9.45
2022-10-19T03:03:17.971Z,8.82
2022-10-19T03:05:44.600Z,9.05
2022-10-19T03:08:11.211Z,9.25
2022-10-19T03:10:37.797Z,8.75
2022-10-19T03:13:04.382Z,9.52
2022-10-19T03:15:30.977Z,9.77
2022-10-19T03:17:57.625Z,11.25
2022-10-19T03:20:24.279Z,10.70
2022-10-19T03:22:50.994Z,13.23
2022-10-19T03:25:17.681Z,16.88
2022-10-19T03:27:44.275Z,14.07
2022-10-19T03:30:11.219Z,15.48
2022-10-19T03:32:37.850Z,16.05
2022-10-19T03:35:04.897Z,20.15
2022-10-19T03:37:31.757Z,19.67
2022-10-19T03:39:58.619Z,19.70
2022-10-19T03:42:25.236Z,18.38
2022-10-19T03:44:51.810Z,18.85
2022-10-19T03:47:18.405Z,17.83
2022-10-19T03:49:45.091Z,18.98
2022-10-19T03:52:11.690Z,23.77
2022-10-19T03:54:38.415Z,21.77
2022-10-19T03:57:05.057Z,17.83
2022-10-19T03:59:31.838Z,16.98
2022-10-19T04:01:58.393Z,15.30
2022-10-19T04:04:25.110Z,17.55
2022-10-19T04:06:53.513Z,16.98
2022-10-19T04:09:22.073Z,16.13
2022-10-19T04:11:49.349Z,16.65
2022-10-19T04:14:26.860Z,16.00
2022-10-19T04:17:01.643Z,15.32
2022-10-19T04:19:28.352Z,15.68
2022-10-19T04:21:55.038Z,16.30
2022-10-19T04:24:21.755Z,16.23
2022-10-19T04:26:51.496Z,17.83
2022-10-19T04:29:20.163Z,17.65
2022-10-19T04:31:49.374Z,18.15
2022-10-19T04:34:16.423Z,16.02
2022-10-19T04:36:43.031Z,15.38
2022-10-19T04:39:09.911Z,13.38
2022-10-19T04:41:38.297Z,16.70
2022-10-19T04:44:08.625Z,15.30
2022-10-19T04:46:35.396Z,17.83
2022-10-19T04:49:04.287Z,15.68
2022-10-19T04:51:30.976Z,16.80
2022-10-19T04:53:59.665Z,13.15
2022-10-19T04:56:28.277Z,12.40
2022-10-19T04:58:57.521Z,13.48
2022-10-19T05:01:25.607Z,17.85
2022-10-19T05:04:00.557Z,17.35
2022-10-19T05:06:27.810Z,17.50
2022-10-19T05:08:54.505Z,18.90
2022-10-19T05:11:21.344Z,16.80
2022-10-19T05:13:48.888Z,17.70
2022-10-19T05:16:21.314Z,19.48
2022-10-19T05:18:59.676Z,17.63
2022-10-19T05:21:28.844Z,16.90
2022-10-19T05:23:56.706Z,19.15
2022-10-19T05:26:25.926Z,17.73
2022-10-19T05:28:59.450Z,18.25
2022-10-19T05:31:28.543Z,20.58
2022-10-19T05:33:58.641Z,20.67
2022-10-19T05:36:27.907Z,15.65
2022-10-19T05:38:57.049Z,13.80
2022-10-19T05:41:25.598Z,14.73
2022-10-19T05:43:57.304Z,16.52
2022-10-19T05:46:25.544Z,14.73
2022-10-19T05:48:52.622Z,15.85
2022-10-19T05:51:21.701Z,19.25
2022-10-19T05:53:48.730Z,17.20
2022-10-19T05:56:18.074Z,18.02
2022-10-19T05:58:45.142Z,18.15
2022-10-19T06:01:12.524Z,18.52
2022-10-19T06:03:39.148Z,17.85
2022-10-19T06:06:07.576Z,15.23
2022-10-19T06:08:34.697Z,14.23
2022-10-19T06:11:10.707Z,15.25
2022-10-19T06:13:38.423Z,16.38
2022-10-19T06:16:06.228Z,11.93
2022-10-19T06:18:33.315Z,10.45
2022-10-19T06:21:05.709Z,12.45
2022-10-19T06:23:34.190Z,15.50
2022-10-19T06:26:05.947Z,11.05
2022-10-19T06:28:32.751Z,13.30
2022-10-19T06:31:00.238Z,11.20
2022-10-19T06:33:28.098Z,11.32
2022-10-19T06:35:54.662Z,12.13
2022-10-19T06:38:21.543Z,10.15
2022-10-19T06:40:49.219Z,13.20
2022-10-19T06:43:15.879Z,12.65
2022-10-19T06:45:42.451Z,10.27
2022-10-19T06:48:09.104Z,19.88
2022-10-19T06:50:35.684Z,13.40
2022-10-19T06:53:02.335Z,12.50
2022-10-19T06:55:28.903Z,14.35
2022-10-19T06:57:55.483Z,16.00
2022-10-19T07:00:22.076Z,19.90
2022-10-19T07:02:48.646Z,21.35
2022-10-19T07:05:15.326Z,21.30
2022-10-19T07:07:41.958Z,22.33
2022-10-19T07:10:08.970Z,24.02
2022-10-19T07:12:35.559Z,22.20
2022-10-19T07:15:02.142Z,21.95
2022-10-19T07:17:28.783Z,28.17
2022-10-19T07:19:55.483Z,18.52
2022-10-19T07:22:27.211Z,19.13
2022-10-19T07:24:54.739Z,20.08
2022-10-19T07:27:21.687Z,21.98
2022-10-19T07:29:48.283Z,18.50
2022-10-19T07:32:14.873Z,18.45
2022-10-19T07:34:41.521Z,18.75
2022-10-19T07:37:08.149Z,19.38
2022-10-19T07:39:34.724Z,16.55
2022-10-19T07:42:01.358Z,18.08
2022-10-19T07:44:28.107Z,18.17
2022-10-19T07:46:54.739Z,17.15
2022-10-19T07:49:21.850Z,18.02
2022-10-19T07:51:48.439Z,16.52
2022-10-19T07:54:15.427Z,15.30
2022-10-19T07:56:42.012Z,16.35
2022-10-19T07:59:10.299Z,15.75
2022-10-19T08:01:41.432Z,14.95
2022-10-19T08:06:55.179Z,15.27
2022-10-19T08:12:12.456Z,14.52
2022-10-19T08:14:40.603Z,14.15
2022-10-19T08:17:07.195Z,14.13
2022-10-19T08:19:33.783Z,14.50
2022-10-19T08:22:00.381Z,13.55
2022-10-19T08:24:26.978Z,12.80
2022-10-19T08:26:53.558Z,13.40
2022-10-19T08:29:21.124Z,14.68
2022-10-19T08:31:48.984Z,9.07
2022-10-19T08:34:16.553Z,10.50
2022-10-19T08:36:43.352Z,8.32
2022-10-19T08:39:12.681Z,10.30
2022-10-19T08:41:42.358Z,10.73
2022-10-19T08:44:18.223Z,11.02
2022-10-19T08:47:02.401Z,10.23
2022-10-19T08:49:31.831Z,10.60
2022-10-19T08:52:05.076Z,15.95
2022-10-19T08:54:51.147Z,15.10
2022-10-19T08:57:36.882Z,15.23
2022-10-19T09:00:10.315Z,17.85
2022-10-19T09:02:56.593Z,22.58
2022-10-19T09:05:52.792Z,17.90
2022-10-19T09:08:20.606Z,14.27
2022-10-19T09:10:50.994Z,12.55
2022-10-19T09:14:03.836Z,12.27
2022-10-19T09:16:30.355Z,13.13
2022-10-19T09:18:56.985Z,13.00
2022-10-19T09:21:55.157Z,11.18
2022-10-19T09:24:45.702Z,10.95
2022-10-19T09:27:37.501Z,11.85
2022-10-19T09:30:19.116Z,9.85
2022-10-19T09:32:47.477Z,11.00
2022-10-19T09:35:23.271Z,11.43
2022-10-19T09:37:51.238Z,12.25
2022-10-19T09:40:22.539Z,13.10
2022-10-19T09:42:56.947Z,12.10
2022-10-19T09:45:54.071Z,14.05
2022-10-19T09:48:45.820Z,11.32
2022-10-19T09:51:15.027Z,11.75
2022-10-19T09:53:45.965Z,11.18
2022-10-19T09:56:19.862Z,10.35
2022-10-19T09:58:55.339Z,12.23
2022-10-19T10:01:41.952Z,8.80
2022-10-19T10:04:18.604Z,12.88
2022-10-19T10:06:48.101Z,9.63
2022-10-19T10:09:22.318Z,11.98
2022-10-19T10:11:50.922Z,9.90
2022-10-19T10:14:26.923Z,12.60
2022-10-19T10:17:06.353Z,13.00
2022-10-19T10:19:35.645Z,12.50
2022-10-19T10:22:04.190Z,11.18
2022-10-19T10:24:32.917Z,10.23
2022-10-19T10:27:02.339Z,12.07
2022-10-19T10:29:33.679Z,9.85
2022-10-19T10:32:06.192Z,11.45
2022-10-19T10:34:45.956Z,7.82
2022-10-19T10:37:38.915Z,9.73
2022-10-19T10:40:07.859Z,10.25
2022-10-19T10:42:44.311Z,9.40
2022-10-19T10:45:24.937Z,9.35
2022-10-19T10:47:52.969Z,12.57
2022-10-19T10:50:23.900Z,11.75
2022-10-19T10:53:26.879Z,10.27
2022-10-19T10:55:56.247Z,8.53
2022-10-19T10:58:38.943Z,9.00
2022-10-19T11:01:13.328Z,9.45
2022-10-19T11:03:51.388Z,12.05
2022-10-19T11:06:21.133Z,13.32
2022-10-19T11:09:23.101Z,13.73
2022-10-19T11:11:55.979Z,12.25
2022-10-19T11:14:42.785Z,11.07
2022-10-19T11:17:28.486Z,13.32
2022-10-19T11:19:55.179Z,12.13
2022-10-19T11:22:43.625Z,12.85
2022-10-19T11:25:22.210Z,13.27
2022-10-19T11:28:00.715Z,14.45
2022-10-19T11:30:29.401Z,13.57
2022-10-19T11:33:13.084Z,12.80
2022-10-19T11:35:50.376Z,13.60
2022-10-19T11:38:30.892Z,12.10
2022-10-19T11:41:18.275Z,12.27
2022-10-19T11:44:06.544Z,11.57
2022-10-19T11:46:45.740Z,12.10
2022-10-19T11:49:18.192Z,12.38
2022-10-19T11:52:05.706Z,12.15
2022-10-19T11:54:53.239Z,12.80
2022-10-19T11:57:26.249Z,11.45
2022-10-19T12:03:06.006Z,13.25
2022-10-19T12:05:52.275Z,13.38
2022-10-19T12:08:53.864Z,12.45
2022-10-19T12:11:43.716Z,12.63
2022-10-19T12:14:16.418Z,11.35
2022-10-19T12:16:49.734Z,11.40
2022-10-19T12:19:29.502Z,10.95
2022-10-19T12:22:02.355Z,13.38
2022-10-19T12:24:30.658Z,11.38
2022-10-19T12:26:58.456Z,11.23
2022-10-19T12:29:39.654Z,10.25
2022-10-19T12:32:07.223Z,11.10
2022-10-19T12:35:11.094Z,9.75
2022-10-19T12:37:49.779Z,9.60
2022-10-19T12:40:34.099Z,8.98
2022-10-19T12:43:09.176Z,9.23
2022-10-19T12:45:41.558Z,10.35
2022-10-19T12:48:08.085Z,10.73
2022-10-19T12:50:49.877Z,9.48
2022-10-19T12:53:38.778Z,9.80
2022-10-19T12:56:07.351Z,9.93
2022-10-19T12:58:59.759Z,9.43
2022-10-19T13:01:33.943Z,8.97
2022-10-19T13:04:20.802Z,8.80
2022-10-19T13:06:57.306Z,7.53
2022-10-19T13:09:32.813Z,7.85
2022-10-19T13:12:17.877Z,6.80
2022-10-19T13:15:00.011Z,8.30
2022-10-19T13:17:43.989Z,6.57
2022-10-19T13:20:13.673Z,10.13
2022-10-19T13:22:49.534Z,7.18
2022-10-19T13:25:30.998Z,7.15
2022-10-19T13:28:01.319Z,7.78
2022-10-19T13:30:38.200Z,6.05
2022-10-19T13:33:28.570Z,6.80
2022-10-19T13:36:02.651Z,7.80
2022-10-19T13:38:39.908Z,7.57
2022-10-19T13:41:09.132Z,5.80
2022-10-19T13:44:12.089Z,5.85
2022-10-19T13:46:41.278Z,6.63
2022-10-19T13:49:13.091Z,7.40
2022-10-19T13:51:45.410Z,6.40
2022-10-19T13:54:14.626Z,7.65
2022-10-19T13:56:59.881Z,6.43
2022-10-19T13:59:36.922Z,6.65
2022-10-19T14:02:40.346Z,6.10
2022-10-19T14:05:24.972Z,6.15
2022-10-19T14:08:03.316Z,6.47
2022-10-19T14:10:32.947Z,6.60
2022-10-19T14:13:01.892Z,7.90
2022-10-19T14:15:34.231Z,7.78
2022-10-19T14:18:03.738Z,6.95
2022-10-19T14:20:38.413Z,7.45
2022-10-19T14:23:19.520Z,8.60
2022-10-19T14:25:54.856Z,7.95
2022-10-19T14:28:23.494Z,9.27
2022-10-19T14:31:06.948Z,7.57
2022-10-19T14:33:44.364Z,7.28
2022-10-19T14:36:18.082Z,7.85
2022-10-19T14:38:45.231Z,7.65
2022-10-19T14:41:22.035Z,7.93
2022-10-19T14:43:48.636Z,9.65
2022-10-19T14:46:16.442Z,7.00
2022-10-19T14:48:45.915Z,7.97
2022-10-19T14:51:30.501Z,7.68
2022-10-19T14:54:23.991Z,7.07
2022-10-19T14:56:55.601Z,11.05
2022-10-19T14:59:30.085Z,8.68
2022-10-19T15:02:02.603Z,9.05
2022-10-19T15:04:34.396Z,9.65
2022-10-19T15:07:05.113Z,7.82
2022-10-19T15:09:47.884Z,8.80
2022-10-19T15:12:20.090Z,6.95
2022-10-19T15:14:47.965Z,7.30
2022-10-19T15:17:59.319Z,7.97
2022-10-19T15:20:49.351Z,8.60
2022-10-19T15:23:40.722Z,8.35
2022-10-19T15:26:19.688Z,7.45
2022-10-19T15:28:47.507Z,8.77
2022-10-19T15:31:18.450Z,8.57
2022-10-19T15:33:55.255Z,10.95
2022-10-19T15:36:23.459Z,9.13
2022-10-19T15:39:17.949Z,9.88
2022-10-19T15:41:52.129Z,9.45
2022-10-19T15:44:34.109Z,9.95
2022-10-19T15:47:15.901Z,11.10
2022-10-19T15:49:42.500Z,9.00
2022-10-19T15:52:23.729Z,10.43
2022-10-19T15:54:51.564Z,10.85
2022-10-19T15:57:38.356Z,11.25
2022-10-19T16:00:13.131Z,8.30
2022-10-19T16:02:39.813Z,10.93
2022-10-19T16:07:40.831Z,10.90
2022-10-19T16:10:13.313Z,11.77
2022-10-19T16:12:39.912Z,13.77
2022-10-19T16:15:07.111Z,19.23
2022-10-19T16:17:33.967Z,18.23
2022-10-19T16:20:00.719Z,12.90
2022-10-19T16:22:27.358Z,13.43
2022-10-19T16:24:53.939Z,13.23
2022-10-19T16:27:20.607Z,14.07
2022-10-19T16:29:47.189Z,12.27
2022-10-19T16:32:13.823Z,11.25
2022-10-19T16:34:41.399Z,11.35
2022-10-19T16:37:08.025Z,9.35
2022-10-19T16:39:35.128Z,11.13
2022-10-19T16:42:01.759Z,12.60
2022-10-19T16:44:28.394Z,17.08
2022-10-19T16:46:57.922Z,12.80
2022-10-19T16:49:24.775Z,14.07
2022-10-19T16:51:54.711Z,10.95
2022-10-19T16:54:24.610Z,14.90
2022-10-19T16:56:51.196Z,10.80
2022-10-19T16:59:18.809Z,9.30
2022-10-19T17:01:47.189Z,14.20
2022-10-19T17:04:17.211Z,11.70
2022-10-19T17:06:44.210Z,13.82
2022-10-19T17:11:57.504Z,10.93
2022-10-19T17:14:24.102Z,11.55
2022-10-19T17:16:50.679Z,11.23
2022-10-19T17:19:17.311Z,13.20
2022-10-19T17:21:43.918Z,12.02
2022-10-19T17:24:21.989Z,26.15
2022-10-19T17:26:50.882Z,14.20
2022-10-19T17:29:18.087Z,14.85
2022-10-19T17:31:44.745Z,13.18
2022-10-19T17:34:12.086Z,17.45
2022-10-19T17:36:44.777Z,15.48
2022-10-19T17:39:18.187Z,13.70
2022-10-19T17:41:49.431Z,19.02
2022-10-19T17:44:17.450Z,14.90
2022-10-19T17:46:44.919Z,11.95
2022-10-19T17:49:12.574Z,15.77
2022-10-19T17:51:39.547Z,19.83
2022-10-19T17:54:12.256Z,14.20
2022-10-19T17:56:40.255Z,12.50
2022-10-19T17:59:08.887Z,14.90
2022-10-19T18:01:36.943Z,13.30
2022-10-19T18:04:04.267Z,22.65
2022-10-19T18:06:33.474Z,24.02
2022-10-19T18:09:01.794Z,32.30
2022-10-19T18:11:31.195Z,13.70
2022-10-19T18:14:00.618Z,12.95
2022-10-19T18:16:29.153Z,15.40
2022-10-19T18:18:57.737Z,14.85
2022-10-19T18:21:31.240Z,13.93
2022-10-19T18:23:59.319Z,13.80
2022-10-19T18:26:29.687Z,16.83
2022-10-19T18:28:57.379Z,16.88
2022-10-19T18:31:34.066Z,18.15
2022-10-19T18:34:03.002Z,16.63
2022-10-19T18:36:30.667Z,15.13
2022-10-19T18:39:00.579Z,16.55
2022-10-19T18:41:28.340Z,15.98
2022-10-19T18:43:57.354Z,16.65
2022-10-19T18:46:25.958Z,15.93
2022-10-19T18:48:53.654Z,13.80
2022-10-19T18:51:22.118Z,14.05
2022-10-19T18:53:48.833Z,16.48
2022-10-19T18:56:18.464Z,14.85
2022-10-19T18:58:45.559Z,15.65
2022-10-19T19:01:24.832Z,17.65
2022-10-19T19:03:53.987Z,16.88
2022-10-19T19:06:26.281Z,19.30
2022-10-19T19:08:57.255Z,17.90
2022-10-19T19:11:26.016Z,20.55
2022-10-19T19:13:57.992Z,16.23
2022-10-19T19:16:25.863Z,18.17
2022-10-19T19:18:52.497Z,15.60
2022-10-19T19:21:21.712Z,14.70
2022-10-19T19:23:49.552Z,21.70
2022-10-19T19:26:17.455Z,20.08
2022-10-19T19:28:46.393Z,18.38
2022-10-19T19:33:45.463Z,15.93
2022-10-19T19:36:13.758Z,18.13
2022-10-19T19:38:40.775Z,17.55
2022-10-19T19:41:09.475Z,16.85
2022-10-19T19:43:37.407Z,17.02
2022-10-19T19:46:09.375Z,15.35
2022-10-19T19:48:37.054Z,17.58
2022-10-19T19:51:03.888Z,17.27
2022-10-19T19:53:30.683Z,14.27
2022-10-19T19:55:57.328Z,15.73
2022-10-19T19:58:23.917Z,14.48
2022-10-19T20:00:50.555Z,16.73
2022-10-19T20:03:17.190Z,13.38
2022-10-19T20:05:43.822Z,12.70
2022-10-19T20:08:11.322Z,14.48
2022-10-19T20:10:39.781Z,14.25
2022-10-19T20:13:06.696Z,13.02
2022-10-19T20:15:33.637Z,15.57
2022-10-19T20:18:00.208Z,12.30
2022-10-19T20:20:26.791Z,13.50
2022-10-19T20:22:53.431Z,12.95
2022-10-19T20:25:19.987Z,16.73
2022-10-19T20:27:46.579Z,15.07
2022-10-19T20:30:13.208Z,13.65
2022-10-19T20:32:39.809Z,13.63
2022-10-19T20:35:07.538Z,17.23
2022-10-19T20:37:34.326Z,15.90
2022-10-19T20:40:03.389Z,14.13
2022-10-19T20:42:34.199Z,15.38
2022-10-19T20:45:01.050Z,12.85
2022-10-19T20:47:27.723Z,16.52
2022-10-19T20:49:54.385Z,15.70
2022-10-19T20:52:21.047Z,16.70
2022-10-19T20:54:48.470Z,15.35
2022-10-19T20:57:15.318Z,15.98
2022-10-19T20:59:43.948Z,14.93
2022-10-19T21:02:11.376Z,14.43
2022-10-19T21:04:38.131Z,16.63
2022-10-19T21:07:05.139Z,16.70
2022-10-19T21:09:32.054Z,15.52
2022-10-19T21:11:58.711Z,15.40
2022-10-19T21:14:29.983Z,17.20
2022-10-19T21:17:00.347Z,15.70
2022-10-19T21:19:28.882Z,15.95
2022-10-19T21:22:03.712Z,21.08
2022-10-19T21:24:36.048Z,15.00
2022-10-19T21:27:05.197Z,16.23
2022-10-19T21:29:31.865Z,14.23
2022-10-19T21:31:58.544Z,15.98
2022-10-19T21:34:29.964Z,16.70
2022-10-19T21:36:57.714Z,15.32
2022-10-19T21:39:24.362Z,17.67
2022-10-19T21:41:51.007Z,17.73
2022-10-19T21:44:18.687Z,14.55
2022-10-19T21:46:47.885Z,17.50
2022-10-19T21:49:15.135Z,14.77
2022-10-19T21:51:47.390Z,16.30
2022-10-19T21:54:19.262Z,16.30
2022-10-19T21:56:47.290Z,16.60
2022-10-19T21:59:15.053Z,15.77
2022-10-19T22:01:42.027Z,15.75
2022-10-19T22:04:16.920Z,13.25
2022-10-19T22:06:44.171Z,18.00
2022-10-19T22:09:14.110Z,14.88
2022-10-19T22:11:40.780Z,16.38
2022-10-19T22:14:07.622Z,12.85
2022-10-19T22:16:36.974Z,15.63
2022-10-19T22:19:05.351Z,15.25
2022-10-19T22:21:33.687Z,14.30
2022-10-19T22:24:06.814Z,16.05
2022-10-19T22:26:47.881Z,13.20
2022-10-19T22:29:15.018Z,16.88
2022-10-19T22:31:41.980Z,15.75
2022-10-19T22:34:14.834Z,13.43
2022-10-19T22:36:42.071Z,14.75
2022-10-19T22:39:09.163Z,13.57
2022-10-19T22:41:35.771Z,13.35
2022-10-19T22:44:02.537Z,13.63
2022-10-19T22:46:29.156Z,13.10
2022-10-19T22:48:55.801Z,14.13
2022-10-19T22:51:22.454Z,14.00
2022-10-19T22:53:49.013Z,12.75
2022-10-19T22:56:15.630Z,16.35
2022-10-19T22:58:42.278Z,13.93
2022-10-19T23:01:11.582Z,14.95
2022-10-19T23:03:40.342Z,14.57
2022-10-19T23:06:08.620Z,13.23
2022-10-19T23:08:35.424Z,11.32
2022-10-19T23:11:02.163Z,15.23
2022-10-19T23:13:28.963Z,11.48
2022-10-19T23:15:55.687Z,10.93
2022-10-19T23:18:22.344Z,11.15
2022-10-19T23:21:03.999Z,13.80
2022-10-19T23:23:32.542Z,13.27
2022-10-19T23:26:03.625Z,13.15
2022-10-19T23:28:31.599Z,13.98
2022-10-19T23:31:04.746Z,12.85
2022-10-19T23:33:31.956Z,11.80
2022-10-19T23:36:07.138Z,14.38
2022-10-19T23:38:34.483Z,9.43
2022-10-19T23:41:01.188Z,9.65
2022-10-19T23:43:28.073Z,11.52
2022-10-19T23:45:54.765Z,10.48
2022-10-19T23:48:21.557Z,9.90
2022-10-19T23:51:00.045Z,9.05
2022-10-19T23:53:27.965Z,11.25
2022-10-19T23:56:02.398Z,8.80
2022-10-19T23:58:29.366Z,10.18
